Aviation Digital Data Service (ADDS)

Output produced by METARs form (2113 UTC 20 November 2017)
found at http://www.aviationweather.gov/adds/metars/
 
KSTC 202053Z 20007KT 10SM CLR 04/M01 A2941 RMK AO2 SLP978 T00391011 56018
KBRD 202053Z AUTO 19009KT 10SM CLR 04/M02 A2934 RMK AO2 SLP951 T00441022 56017